Time;durP1;ratioP1;P1;durP2;ratioP2;P2;SDS_P1;SDS_P2;PMS_P1;PMS_P2;Temp;Humidity;BMP_temperature;BMP_pressure;BME280_temperature;BME280_humidity;BME280_pressure;Samples;Min_cycle;Max_cycle;Signal;HPM_P1;HPM_P2
2023/01/12 00:01:28;;;;;;;24.20;5.10;;;;;;;;;;5045002;28;20053;-78
2023/01/12 00:03:54;;;;;;;19.52;5.28;;;;;;;;;;5042839;28;20059;-78
2023/01/12 00:06:21;;;;;;;24.02;6.28;;;;;;;;;;5035407;28;20048;-79
2023/01/12 00:08:48;;;;;;;18.30;5.45;;;;;;;;;;5038987;28;20100;-78
2023/01/12 00:11:14;;;;;;;21.70;5.97;;;;;;;;;;5038858;28;20459;-79
2023/01/12 00:13:41;;;;;;;20.38;5.95;;;;;;;;;;5041055;28;20371;-79
2023/01/12 00:18:51;;;;;;;24.02;5.68;;;;;;;;;;5045098;28;20087;-78
2023/01/12 00:21:17;;;;;;;16.48;5.35;;;;;;;;;;5056196;28;20021;-78
2023/01/12 00:23:44;;;;;;;27.95;6.28;;;;;;;;;;5040228;28;20022;-78
2023/01/12 00:26:10;;;;;;;19.33;5.38;;;;;;;;;;5052001;28;20075;-79
2023/01/12 00:28:40;;;;;;;21.90;5.95;;;;;;;;;;5043079;28;20031;-78
2023/01/12 00:31:07;;;;;;;23.95;6.60;;;;;;;;;;5034505;28;20384;-78
2023/01/12 00:33:37;;;;;;;20.48;6.03;;;;;;;;;;5040201;28;20436;-78
2023/01/12 00:36:04;;;;;;;17.38;4.80;;;;;;;;;;5040020;28;20025;-79
2023/01/12 00:38:32;;;;;;;32.38;7.72;;;;;;;;;;5031399;28;20030;-77
2023/01/12 00:41:03;;;;;;;28.58;7.57;;;;;;;;;;5044197;28;20022;-78
2023/01/12 00:46:14;;;;;;;23.27;7.53;;;;;;;;;;5047989;28;21090;-79
2023/01/12 00:48:40;;;;;;;22.67;6.20;;;;;;;;;;5037466;28;20028;-78
2023/01/12 00:51:07;;;;;;;22.80;5.43;;;;;;;;;;5052396;28;20074;-78
2023/01/12 00:53:33;;;;;;;27.23;6.70;;;;;;;;;;5042964;28;20071;-78
2023/01/12 00:56:02;;;;;;;26.70;5.90;;;;;;;;;;5044314;28;20025;-79
2023/01/12 00:58:28;;;;;;;25.17;6.45;;;;;;;;;;5049646;28;20091;-78
2023/01/12 01:00:55;;;;;;;24.48;8.70;;;;;;;;;;5048354;28;20028;-78
2023/01/12 01:03:21;;;;;;;24.70;7.40;;;;;;;;;;5042948;28;20028;-78
2023/01/12 01:05:47;;;;;;;22.10;6.03;;;;;;;;;;5033326;28;20032;-79
2023/01/12 01:08:13;;;;;;;25.45;7.15;;;;;;;;;;5042130;28;20025;-78
2023/01/12 01:10:39;;;;;;;23.73;6.20;;;;;;;;;;5047806;28;20020;-79
2023/01/12 01:13:05;;;;;;;25.23;5.75;;;;;;;;;;5045805;28;20037;-79
2023/01/12 01:15:31;;;;;;;25.70;6.28;;;;;;;;;;5043047;28;20099;-78
2023/01/12 01:17:57;;;;;;;29.92;7.78;;;;;;;;;;5032255;28;20021;-78
2023/01/12 01:20:23;;;;;;;28.40;6.43;;;;;;;;;;5048569;28;20021;-78
2023/01/12 01:22:49;;;;;;;24.17;5.82;;;;;;;;;;5055337;28;20122;-78
2023/01/12 01:25:15;;;;;;;24.80;8.30;;;;;;;;;;5036925;28;20468;-79
2023/01/12 01:27:41;;;;;;;20.75;6.75;;;;;;;;;;5039200;28;20518;-78
2023/01/12 01:30:08;;;;;;;24.25;6.07;;;;;;;;;;5049281;28;20033;-78
2023/01/12 01:32:34;;;;;;;14.65;5.38;;;;;;;;;;5032306;28;21340;-78
2023/01/12 01:35:00;;;;;;;25.85;7.32;;;;;;;;;;5037516;28;20033;-77
2023/01/12 01:37:27;;;;;;;24.40;6.13;;;;;;;;;;5038365;28;20035;-77
2023/01/12 01:39:55;;;;;;;24.13;6.68;;;;;;;;;;5038705;28;20479;-77
2023/01/12 01:42:29;;;;;;;19.63;5.60;;;;;;;;;;5053517;28;20017;-78
2023/01/12 01:44:57;;;;;;;24.33;6.72;;;;;;;;;;5047107;28;20060;-78
2023/01/12 01:47:26;;;;;;;20.23;4.63;;;;;;;;;;5047979;28;20403;-78
2023/01/12 01:49:54;;;;;;;22.30;4.57;;;;;;;;;;5051412;28;20055;-78
2023/01/12 01:52:35;;;;;;;30.73;5.32;;;;;;;;;;5041474;28;20413;-78
2023/01/12 01:55:10;;;;;;;17.63;6.13;;;;;;;;;;5040469;28;20041;-78
2023/01/12 01:57:41;;;;;;;25.05;4.97;;;;;;;;;;5045273;28;20021;-77
2023/01/12 02:00:08;;;;;;;23.17;5.80;;;;;;;;;;5035285;28;20049;-79
2023/01/12 02:02:35;;;;;;;30.30;5.63;;;;;;;;;;5033874;28;20029;-78
2023/01/12 02:05:01;;;;;;;20.77;6.15;;;;;;;;;;5049205;28;20037;-78
2023/01/12 02:07:27;;;;;;;29.80;6.30;;;;;;;;;;5055548;28;20026;-79
2023/01/12 02:09:53;;;;;;;24.38;5.43;;;;;;;;;;5042539;28;20360;-77
2023/01/12 02:17:54;;;;;;;24.67;7.95;;;;;;;;;;5037372;28;20083;-78
2023/01/12 02:20:20;;;;;;;25.70;6.75;;;;;;;;;;5028555;28;20427;-78
2023/01/12 02:23:05;;;;;;;22.52;6.75;;;;;;;;;;5053864;28;20029;-78
2023/01/12 02:25:43;;;;;;;20.23;5.27;;;;;;;;;;5036444;28;20037;-78
2023/01/12 02:28:21;;;;;;;17.08;5.38;;;;;;;;;;5049229;28;20125;-78
2023/01/12 02:31:03;;;;;;;24.55;6.85;;;;;;;;;;5036388;28;20017;-78
2023/01/12 02:33:29;;;;;;;28.27;6.20;;;;;;;;;;5064795;28;20029;-78
2023/01/12 02:36:02;;;;;;;17.05;5.28;;;;;;;;;;5039511;28;20028;-78
2023/01/12 02:38:40;;;;;;;20.50;5.15;;;;;;;;;;5036244;28;20628;-77
2023/01/12 02:44:27;;;;;;;24.38;5.97;;;;;;;;;;5037224;28;20047;-78
2023/01/12 02:46:54;;;;;;;18.80;5.00;;;;;;;;;;5044227;28;20509;-78
2023/01/12 02:49:22;;;;;;;14.93;4.53;;;;;;;;;;5044820;28;20028;-78
2023/01/12 02:51:59;;;;;;;22.15;5.28;;;;;;;;;;5042654;28;20076;-78
2023/01/12 02:54:26;;;;;;;20.73;7.65;;;;;;;;;;5043124;28;20025;-78
2023/01/12 02:56:59;;;;;;;16.88;3.97;;;;;;;;;;5032759;28;21425;-79
2023/01/12 02:59:29;;;;;;;24.80;5.40;;;;;;;;;;5046855;28;20071;-78
2023/01/12 03:01:57;;;;;;;22.90;6.05;;;;;;;;;;5036205;28;20454;-78
2023/01/12 03:04:24;;;;;;;21.02;4.13;;;;;;;;;;5065210;28;20047;-79
2023/01/12 03:06:56;;;;;;;19.17;4.28;;;;;;;;;;5042519;28;20041;-79
2023/01/12 03:09:24;;;;;;;20.38;4.95;;;;;;;;;;5043536;28;20029;-78
2023/01/12 03:11:52;;;;;;;24.15;5.40;;;;;;;;;;5036074;28;20093;-79
2023/01/12 03:14:19;;;;;;;18.17;5.13;;;;;;;;;;5043979;28;20124;-78
2023/01/12 03:16:45;;;;;;;22.52;5.53;;;;;;;;;;5042450;28;20055;-79
2023/01/12 03:19:15;;;;;;;16.77;4.38;;;;;;;;;;5041352;28;20519;-78
2023/01/12 03:21:47;;;;;;;11.88;4.25;;;;;;;;;;5040921;28;20028;-78
2023/01/12 03:24:19;;;;;;;13.18;3.80;;;;;;;;;;5049979;28;20040;-77
2023/01/12 03:26:49;;;;;;;13.73;3.35;;;;;;;;;;5058792;28;20031;-78
2023/01/12 03:29:22;;;;;;;12.98;4.28;;;;;;;;;;5040896;28;20025;-78
2023/01/12 03:31:48;;;;;;;8.98;3.13;;;;;;;;;;5041467;28;20487;-78
2023/01/12 03:34:14;;;;;;;11.65;3.42;;;;;;;;;;5034715;28;20088;-78
2023/01/12 03:36:45;;;;;;;11.73;3.70;;;;;;;;;;5044963;28;20028;-78
2023/01/12 03:39:16;;;;;;;7.90;3.10;;;;;;;;;;5040581;28;20032;-78
2023/01/12 03:41:50;;;;;;;10.02;4.25;;;;;;;;;;5034407;28;20037;-79
2023/01/12 03:44:51;;;;;;;11.07;3.40;;;;;;;;;;5038453;28;20029;-78
2023/01/12 03:47:22;;;;;;;14.00;3.70;;;;;;;;;;4973747;28;20084;-77
2023/01/12 03:49:54;;;;;;;8.52;3.00;;;;;;;;;;5036410;28;20052;-79
2023/01/12 03:52:21;;;;;;;12.77;3.40;;;;;;;;;;5047162;28;20059;-78
2023/01/12 03:54:48;;;;;;;12.70;3.85;;;;;;;;;;5043584;28;20035;-78
2023/01/12 03:57:15;;;;;;;10.80;3.22;;;;;;;;;;5039455;28;20040;-77
2023/01/12 03:59:41;;;;;;;10.25;3.03;;;;;;;;;;5044597;28;20017;-78
2023/01/12 04:02:08;;;;;;;15.02;3.22;;;;;;;;;;5043948;28;20100;-77
2023/01/12 04:04:35;;;;;;;12.10;3.70;;;;;;;;;;5051188;28;20079;-78
2023/01/12 04:07:01;;;;;;;11.13;2.95;;;;;;;;;;5029942;28;20026;-78
2023/01/12 04:09:27;;;;;;;15.60;3.97;;;;;;;;;;5045859;28;20025;-79
2023/01/12 04:12:11;;;;;;;12.98;3.90;;;;;;;;;;5054646;28;20396;-78
2023/01/12 04:14:38;;;;;;;13.40;3.88;;;;;;;;;;5060075;28;20032;-79
2023/01/12 04:17:04;;;;;;;14.45;5.28;;;;;;;;;;5057005;28;20148;-77
2023/01/12 04:19:30;;;;;;;11.45;3.28;;;;;;;;;;5055228;28;20040;-78
2023/01/12 04:24:41;;;;;;;14.95;4.22;;;;;;;;;;5046358;28;20052;-78
2023/01/12 04:27:08;;;;;;;11.77;4.88;;;;;;;;;;5050311;28;20407;-78
2023/01/12 04:29:34;;;;;;;15.57;4.65;;;;;;;;;;5045568;28;20048;-78
2023/01/12 04:32:01;;;;;;;18.55;4.45;;;;;;;;;;5036433;28;20021;-78
2023/01/12 04:34:27;;;;;;;17.77;4.32;;;;;;;;;;5031474;28;20100;-79
2023/01/12 04:36:53;;;;;;;18.67;4.30;;;;;;;;;;5045825;28;20028;-79
2023/01/12 04:39:19;;;;;;;17.48;3.72;;;;;;;;;;5040598;28;20033;-78
2023/01/12 04:41:45;;;;;;;16.52;4.78;;;;;;;;;;5042556;28;20036;-78
2023/01/12 04:44:11;;;;;;;13.25;3.80;;;;;;;;;;5043121;28;20097;-78
2023/01/12 04:46:37;;;;;;;15.15;4.18;;;;;;;;;;5042106;28;20460;-77
2023/01/12 04:49:03;;;;;;;19.65;4.85;;;;;;;;;;5051953;28;20075;-78
2023/01/12 04:51:29;;;;;;;15.85;4.10;;;;;;;;;;5040838;28;20052;-78
2023/01/12 04:53:55;;;;;;;16.52;4.63;;;;;;;;;;5028322;28;20518;-78
2023/01/12 04:56:21;;;;;;;16.00;4.70;;;;;;;;;;5045531;28;20028;-78
2023/01/12 04:58:48;;;;;;;25.50;5.63;;;;;;;;;;5034158;28;20513;-78
2023/01/12 05:01:15;;;;;;;15.45;4.10;;;;;;;;;;5040139;28;20029;-77
2023/01/12 05:03:41;;;;;;;17.30;4.80;;;;;;;;;;5039093;28;20036;-78
2023/01/12 05:06:07;;;;;;;14.75;4.47;;;;;;;;;;5040736;28;20031;-78
2023/01/12 05:11:20;;;;;;;11.43;4.60;;;;;;;;;;5045116;28;20048;-78
2023/01/12 05:13:46;;;;;;;14.77;4.18;;;;;;;;;;5053593;28;20371;-78
2023/01/12 05:16:16;;;;;;;21.92;4.68;;;;;;;;;;5059850;28;20078;-77
2023/01/12 05:18:43;;;;;;;18.98;5.03;;;;;;;;;;5035778;28;20056;-78
2023/01/12 05:21:10;;;;;;;25.25;4.68;;;;;;;;;;5034203;28;20013;-77
2023/01/12 05:23:36;;;;;;;12.32;5.03;;;;;;;;;;5041110;28;20048;-78
2023/01/12 05:26:03;;;;;;;15.82;4.03;;;;;;;;;;5051874;28;20148;-78
2023/01/12 05:28:29;;;;;;;11.20;2.92;;;;;;;;;;5043009;28;20029;-78
2023/01/12 05:31:01;;;;;;;7.05;3.00;;;;;;;;;;5053747;28;20029;-78
2023/01/12 05:33:27;;;;;;;13.82;3.75;;;;;;;;;;5041604;28;20025;-78
2023/01/12 05:35:53;;;;;;;16.92;3.67;;;;;;;;;;5038868;28;20033;-78
2023/01/12 05:38:19;;;;;;;7.90;2.55;;;;;;;;;;5040262;28;20032;-78
2023/01/12 05:40:45;;;;;;;9.45;2.63;;;;;;;;;;5041178;28;20025;-78
2023/01/12 05:45:57;;;;;;;7.22;2.92;;;;;;;;;;5034237;28;20041;-79
2023/01/12 05:48:23;;;;;;;8.75;2.42;;;;;;;;;;5043711;28;20031;-78
2023/01/12 05:50:49;;;;;;;10.73;3.03;;;;;;;;;;5033155;28;20079;-79
2023/01/12 05:53:15;;;;;;;9.45;2.88;;;;;;;;;;5036705;28;20034;-78
2023/01/12 05:55:41;;;;;;;9.30;2.70;;;;;;;;;;5036611;28;20037;-77
2023/01/12 05:58:07;;;;;;;7.53;3.00;;;;;;;;;;5036856;28;20061;-78
2023/01/12 06:00:33;;;;;;;7.38;2.72;;;;;;;;;;5032283;28;20087;-78
2023/01/12 06:03:01;;;;;;;10.10;3.28;;;;;;;;;;5032216;28;20033;-78
2023/01/12 06:05:27;;;;;;;9.02;2.78;;;;;;;;;;5039719;28;20045;-78
2023/01/12 06:07:53;;;;;;;7.57;3.03;;;;;;;;;;5057595;28;20037;-78
2023/01/12 06:10:19;;;;;;;12.30;3.25;;;;;;;;;;5061615;28;20041;-79
2023/01/12 06:15:32;;;;;;;13.20;3.85;;;;;;;;;;5032684;28;20153;-79
2023/01/12 06:17:58;;;;;;;10.48;3.10;;;;;;;;;;5042790;28;20036;-78
2023/01/12 06:20:24;;;;;;;10.00;3.28;;;;;;;;;;5043153;28;20052;-79
2023/01/12 06:22:50;;;;;;;9.48;2.65;;;;;;;;;;5044540;28;20029;-78
2023/01/12 06:25:16;;;;;;;8.43;3.60;;;;;;;;;;5042686;28;20029;-77
2023/01/12 06:27:42;;;;;;;7.07;3.50;;;;;;;;;;5040950;28;20029;-78
2023/01/12 06:30:08;;;;;;;12.05;3.20;;;;;;;;;;5036572;28;20647;-77
2023/01/12 06:32:35;;;;;;;10.38;3.50;;;;;;;;;;5036213;28;20093;-78
2023/01/12 06:35:02;;;;;;;8.50;3.42;;;;;;;;;;5050771;28;20476;-79
2023/01/12 06:37:29;;;;;;;11.60;2.92;;;;;;;;;;5040721;28;20040;-78
2023/01/12 06:39:55;;;;;;;12.20;3.08;;;;;;;;;;5047545;28;20031;-79
2023/01/12 06:42:27;;;;;;;7.85;3.70;;;;;;;;;;5039593;28;20029;-79
2023/01/12 06:44:54;;;;;;;11.38;4.18;;;;;;;;;;5045842;28;20111;-78
2023/01/12 06:47:20;;;;;;;10.77;3.65;;;;;;;;;;5036286;28;20065;-78
2023/01/12 06:49:47;;;;;;;7.63;2.90;;;;;;;;;;5041626;28;20033;-78
2023/01/12 06:52:13;;;;;;;8.98;2.90;;;;;;;;;;5037949;28;20082;-78
2023/01/12 06:54:39;;;;;;;7.70;2.72;;;;;;;;;;5037974;28;20208;-77
2023/01/12 06:57:05;;;;;;;10.75;4.45;;;;;;;;;;5039825;28;20029;-77
2023/01/12 06:59:31;;;;;;;13.63;3.30;;;;;;;;;;5043398;28;20025;-79
2023/01/12 07:01:57;;;;;;;13.15;3.35;;;;;;;;;;5045574;28;20056;-79
2023/01/12 07:04:23;;;;;;;7.35;2.75;;;;;;;;;;5042067;28;20022;-79
2023/01/12 07:06:53;;;;;;;10.15;2.88;;;;;;;;;;5045163;28;20040;-79
2023/01/12 07:09:19;;;;;;;7.68;3.03;;;;;;;;;;5064268;28;20032;-79
2023/01/12 07:11:45;;;;;;;7.28;2.45;;;;;;;;;;5052739;28;20020;-79
2023/01/12 07:14:11;;;;;;;9.57;3.20;;;;;;;;;;5045721;28;20025;-79
2023/01/12 07:16:39;;;;;;;15.23;2.90;;;;;;;;;;5044842;28;20033;-79
2023/01/12 07:19:05;;;;;;;10.43;2.63;;;;;;;;;;5045720;28;20021;-78
2023/01/12 07:21:31;;;;;;;9.48;3.47;;;;;;;;;;5045138;28;20052;-79
2023/01/12 07:23:57;;;;;;;7.82;3.70;;;;;;;;;;5042593;28;20471;-79
2023/01/12 07:26:23;;;;;;;11.60;3.00;;;;;;;;;;5041997;28;20486;-79
2023/01/12 07:28:49;;;;;;;7.07;2.83;;;;;;;;;;5041919;28;20033;-78
2023/01/12 07:31:15;;;;;;;5.97;2.35;;;;;;;;;;5040725;28;20021;-78
2023/01/12 07:33:41;;;;;;;12.45;3.30;;;;;;;;;;5044334;28;20041;-79
2023/01/12 07:36:07;;;;;;;10.10;2.55;;;;;;;;;;5042289;28;20063;-78
2023/01/12 07:38:33;;;;;;;10.73;2.83;;;;;;;;;;5045009;28;20020;-79
2023/01/12 07:41:00;;;;;;;10.80;2.90;;;;;;;;;;5052177;28;20044;-79
2023/01/12 07:43:27;;;;;;;8.77;2.65;;;;;;;;;;5067844;28;20029;-80
2023/01/12 07:45:56;;;;;;;7.20;2.10;;;;;;;;;;5064251;28;20049;-77
2023/01/12 07:48:22;;;;;;;4.68;2.25;;;;;;;;;;5047164;28;20131;-78
2023/01/12 07:50:48;;;;;;;6.80;3.13;;;;;;;;;;5045422;28;20037;-78
2023/01/12 07:53:14;;;;;;;5.03;2.50;;;;;;;;;;5045287;28;20025;-78
2023/01/12 07:55:42;;;;;;;4.15;1.98;;;;;;;;;;5042123;28;20025;-78
2023/01/12 07:58:08;;;;;;;6.30;2.70;;;;;;;;;;5047356;28;20056;-78
2023/01/12 08:00:35;;;;;;;5.50;2.13;;;;;;;;;;5045999;28;20033;-79
2023/01/12 08:03:06;;;;;;;4.00;2.25;;;;;;;;;;5047249;28;20036;-78
2023/01/12 08:05:32;;;;;;;7.53;2.38;;;;;;;;;;5042857;28;20024;-79
2023/01/12 08:07:58;;;;;;;6.32;2.85;;;;;;;;;;5043177;28;20036;-79
2023/01/12 08:10:25;;;;;;;8.68;2.78;;;;;;;;;;5041995;28;20028;-80
2023/01/12 08:12:51;;;;;;;6.43;2.78;;;;;;;;;;5040396;28;20376;-79
2023/01/12 08:15:17;;;;;;;10.85;3.25;;;;;;;;;;5044930;28;20123;-78
2023/01/12 08:17:49;;;;;;;9.10;3.13;;;;;;;;;;5043415;28;20033;-78
2023/01/12 08:20:18;;;;;;;7.97;3.60;;;;;;;;;;5057996;28;20556;-79
2023/01/12 08:22:45;;;;;;;12.65;3.67;;;;;;;;;;5044811;28;20028;-83
2023/01/12 08:25:33;;;;;;;17.38;4.53;;;;;;;;;;5043843;28;20025;-79
2023/01/12 08:28:00;;;;;;;17.88;5.63;;;;;;;;;;5045392;28;20029;-79
2023/01/12 08:30:27;;;;;;;18.77;5.32;;;;;;;;;;5046358;28;20025;-79
2023/01/12 08:32:55;;;;;;;16.33;5.38;;;;;;;;;;5042992;28;20037;-79
2023/01/12 08:35:23;;;;;;;20.00;4.25;;;;;;;;;;5045723;28;20025;-79
2023/01/12 08:37:49;;;;;;;16.98;5.50;;;;;;;;;;5044892;28;20062;-79
2023/01/12 08:40:15;;;;;;;19.42;4.90;;;;;;;;;;5047103;28;20068;-80
2023/01/12 08:42:41;;;;;;;16.60;5.32;;;;;;;;;;5044609;28;20037;-79
2023/01/12 08:45:07;;;;;;;19.23;6.57;;;;;;;;;;5044251;28;20101;-79
2023/01/12 08:47:33;;;;;;;21.02;5.72;;;;;;;;;;5042497;28;20034;-79
2023/01/12 08:50:00;;;;;;;34.92;7.78;;;;;;;;;;5047042;28;20047;-79
2023/01/12 08:52:31;;;;;;;20.77;5.55;;;;;;;;;;5048969;28;20032;-79
2023/01/12 08:54:57;;;;;;;20.70;4.88;;;;;;;;;;5042566;28;20039;-79
2023/01/12 08:57:23;;;;;;;20.50;7.15;;;;;;;;;;5050653;28;20052;-78
2023/01/12 08:59:49;;;;;;;17.67;5.10;;;;;;;;;;5054843;28;20033;-79
2023/01/12 09:02:15;;;;;;;17.55;5.25;;;;;;;;;;5041846;28;20052;-80
2023/01/12 09:04:41;;;;;;;11.60;4.28;;;;;;;;;;5039542;28;20118;-78
2023/01/12 09:07:08;;;;;;;18.33;4.70;;;;;;;;;;5036908;28;20510;-80
2023/01/12 09:09:34;;;;;;;19.40;6.30;;;;;;;;;;5039209;28;20025;-79
2023/01/12 09:12:01;;;;;;;25.95;6.45;;;;;;;;;;5059999;28;20044;-80
2023/01/12 09:14:28;;;;;;;24.15;6.47;;;;;;;;;;5043147;28;20461;-80
2023/01/12 09:16:57;;;;;;;24.45;6.60;;;;;;;;;;5064313;28;20496;-80
2023/01/12 09:19:23;;;;;;;17.30;5.28;;;;;;;;;;5048348;28;20112;-79
2023/01/12 09:21:49;;;;;;;19.02;5.10;;;;;;;;;;5042512;28;20079;-78
2023/01/12 09:24:15;;;;;;;17.73;5.55;;;;;;;;;;5048275;28;20037;-79
2023/01/12 09:26:42;;;;;;;22.60;5.07;;;;;;;;;;5053322;28;20040;-82
2023/01/12 09:29:09;;;;;;;20.15;6.30;;;;;;;;;;5046608;28;20084;-80
2023/01/12 09:31:37;;;;;;;23.33;5.90;;;;;;;;;;5049052;28;20028;-79
2023/01/12 09:34:04;;;;;;;22.90;6.50;;;;;;;;;;5069461;28;20036;-79
2023/01/12 09:36:32;;;;;;;19.80;5.22;;;;;;;;;;5049368;28;20424;-80
2023/01/12 09:39:00;;;;;;;22.17;5.68;;;;;;;;;;5054340;28;20025;-79
2023/01/12 09:47:23;;;;;;;15.60;4.63;;;;;;;;;;5059482;28;20043;-80
2023/01/12 09:49:57;;;;;;;18.73;5.63;;;;;;;;;;5047835;28;20094;-79
2023/01/12 09:52:28;;;;;;;14.40;4.43;;;;;;;;;;5066723;28;20028;-80
2023/01/12 09:54:54;;;;;;;20.65;5.22;;;;;;;;;;5069573;28;20021;-80
2023/01/12 09:57:51;;;;;;;20.77;5.35;;;;;;;;;;5060337;28;20091;-79
2023/01/12 10:00:18;;;;;;;20.27;5.38;;;;;;;;;;5056458;28;20094;-79
2023/01/12 10:02:49;;;;;;;31.08;5.93;;;;;;;;;;5081061;28;20017;-80
2023/01/12 10:05:54;;;;;;;19.58;6.03;;;;;;;;;;5053304;28;20071;-78
2023/01/12 10:08:23;;;;;;;21.23;5.05;;;;;;;;;;5012794;28;20050;-80
2023/01/12 10:10:59;;;;;;;25.20;6.10;;;;;;;;;;5014147;28;20042;-79
2023/01/12 10:13:28;;;;;;;26.55;6.05;;;;;;;;;;5038845;28;20083;-78
2023/01/12 10:15:57;;;;;;;30.33;8.40;;;;;;;;;;5054186;28;20023;-78
2023/01/12 10:18:28;;;;;;;26.83;6.30;;;;;;;;;;5058492;28;20029;-80
2023/01/12 10:20:54;;;;;;;25.38;7.07;;;;;;;;;;5060867;28;20056;-79
2023/01/12 10:23:23;;;;;;;21.48;5.88;;;;;;;;;;5065147;28;20077;-79
2023/01/12 10:26:00;;;;;;;20.05;5.85;;;;;;;;;;5046590;28;20112;-80
2023/01/12 10:28:33;;;;;;;14.27;4.40;;;;;;;;;;5032384;28;20025;-78
2023/01/12 10:31:00;;;;;;;17.40;5.28;;;;;;;;;;5040794;28;20047;-78
2023/01/12 10:33:27;;;;;;;15.93;4.88;;;;;;;;;;5048780;28;20063;-78
2023/01/12 10:36:00;;;;;;;18.85;4.57;;;;;;;;;;5048600;28;20039;-79
2023/01/12 10:38:28;;;;;;;32.10;6.50;;;;;;;;;;5045698;28;20466;-79
2023/01/12 10:41:12;;;;;;;20.00;5.70;;;;;;;;;;5040024;28;20379;-78
2023/01/12 10:43:39;;;;;;;21.40;5.70;;;;;;;;;;5038787;28;20475;-78
2023/01/12 10:46:16;;;;;;;22.10;6.10;;;;;;;;;;5041291;28;20384;-77
2023/01/12 10:48:43;;;;;;;26.10;6.75;;;;;;;;;;5041423;28;20025;-78
2023/01/12 10:51:20;;;;;;;26.27;6.97;;;;;;;;;;5041332;28;20049;-77
2023/01/12 10:53:53;;;;;;;28.92;8.43;;;;;;;;;;5050193;28;20052;-78
2023/01/12 10:56:28;;;;;;;22.52;5.55;;;;;;;;;;5062535;28;20033;-77
2023/01/12 10:58:54;;;;;;;;;;;;;;;;;;5064140;28;20151;-78
2023/01/12 11:01:21;;;;;;;26.27;7.50;;;;;;;;;;5054586;28;19952;-79
2023/01/12 11:03:47;;;;;;;20.60;5.35;;;;;;;;;;5061622;28;20072;-79
2023/01/12 11:06:15;;;;;;;22.08;5.70;;;;;;;;;;5045362;28;20085;-79
2023/01/12 11:08:41;;;;;;;21.48;6.80;;;;;;;;;;5042416;28;20021;-78
2023/01/12 11:11:23;;;;;;;26.60;6.57;;;;;;;;;;5043153;28;20029;-79
2023/01/12 11:13:54;;;;;;;30.73;7.38;;;;;;;;;;5055360;28;20021;-77
2023/01/12 11:16:30;;;;;;;26.50;6.20;;;;;;;;;;5039274;28;20044;-79
2023/01/12 11:19:15;;;;;;;23.80;7.00;;;;;;;;;;5053183;28;20033;-78
2023/01/12 11:21:44;;;;;;;24.70;5.55;;;;;;;;;;5037726;28;20490;-78
2023/01/12 11:24:19;;;;;;;23.17;5.90;;;;;;;;;;5039082;28;20033;-79
2023/01/12 11:26:50;;;;;;;23.73;6.40;;;;;;;;;;5038304;28;20021;-78
2023/01/12 11:29:16;;;;;;;24.23;6.07;;;;;;;;;;5040952;28;20589;-78
2023/01/12 11:31:43;;;;;;;22.13;7.00;;;;;;;;;;5054707;28;20478;-80
2023/01/12 11:34:09;;;;;;;25.60;6.50;;;;;;;;;;5057545;28;20029;-78
2023/01/12 11:36:42;;;;;;;21.17;6.53;;;;;;;;;;5050387;28;20033;-76
2023/01/12 11:39:16;;;;;;;17.05;5.53;;;;;;;;;;5048391;28;20662;-78
2023/01/12 11:41:42;;;;;;;20.63;6.50;;;;;;;;;;5045878;28;20069;-79
2023/01/12 11:44:26;;;;;;;26.80;7.70;;;;;;;;;;5049613;28;20040;-77
2023/01/12 11:46:55;;;;;;;25.02;5.13;;;;;;;;;;5044596;28;20025;-77
2023/01/12 11:49:37;;;;;;;19.55;6.70;;;;;;;;;;5045195;28;20107;-77
2023/01/12 11:52:03;;;;;;;20.95;5.70;;;;;;;;;;5062258;28;20029;-78
2023/01/12 11:54:30;;;;;;;21.52;7.47;;;;;;;;;;5042148;28;20033;-77
2023/01/12 11:57:15;;;;;;;25.08;6.45;;;;;;;;;;5046295;28;20053;-76
2023/01/12 11:59:53;;;;;;;20.52;5.65;;;;;;;;;;5044072;28;20029;-77
2023/01/12 12:02:38;;;;;;;20.35;7.43;;;;;;;;;;5043292;28;20032;-76
2023/01/12 12:05:22;;;;;;;16.67;5.20;;;;;;;;;;5048824;28;20025;-80
2023/01/12 12:08:04;;;;;;;16.42;5.00;;;;;;;;;;5045213;28;20546;-78
2023/01/12 12:10:37;;;;;;;11.50;4.43;;;;;;;;;;5048840;28;20033;-78
2023/01/12 12:13:20;;;;;;;11.00;4.20;;;;;;;;;;5058902;28;20116;-77
2023/01/12 12:15:46;;;;;;;16.70;4.95;;;;;;;;;;5048356;28;20029;-77
2023/01/12 12:18:13;;;;;;;16.98;4.00;;;;;;;;;;5052976;28;20056;-76
2023/01/12 12:20:39;;;;;;;19.63;4.78;;;;;;;;;;5045073;28;20024;-77
2023/01/12 12:23:22;;;;;;;24.65;4.80;;;;;;;;;;5045933;28;20077;-77
2023/01/12 12:25:57;;;;;;;18.13;4.68;;;;;;;;;;5043491;28;20025;-76
2023/01/12 12:28:35;;;;;;;14.30;5.22;;;;;;;;;;5044009;28;20017;-77
2023/01/12 12:31:01;;;;;;;17.95;5.32;;;;;;;;;;5044345;28;20029;-76
2023/01/12 12:33:36;;;;;;;15.63;4.68;;;;;;;;;;5045029;28;20031;-77
2023/01/12 12:36:03;;;;;;;17.60;5.15;;;;;;;;;;5046438;28;20045;-77
2023/01/12 12:38:32;;;;;;;21.17;5.10;;;;;;;;;;5046228;28;20033;-77
2023/01/12 12:46:35;;;;;;;16.00;4.47;;;;;;;;;;5043887;28;20036;-76
2023/01/12 12:49:04;;;;;;;18.20;4.43;;;;;;;;;;5038227;28;20334;-76
2023/01/12 12:51:32;;;;;;;18.13;5.40;;;;;;;;;;5040357;28;20056;-77
2023/01/12 12:54:01;;;;;;;15.57;4.07;;;;;;;;;;5038685;28;20034;-76
2023/01/12 12:56:30;;;;;;;12.13;4.65;;;;;;;;;;5040470;28;20033;-77
2023/01/12 12:58:58;;;;;;;13.63;4.45;;;;;;;;;;5043641;28;20491;-76
2023/01/12 13:01:25;;;;;;;13.02;3.75;;;;;;;;;;5043400;28;20024;-77
2023/01/12 13:03:51;;;;;;;11.65;4.85;;;;;;;;;;5043174;28;20025;-72
2023/01/12 13:06:24;;;;;;;14.15;4.43;;;;;;;;;;5038894;28;20023;-77
2023/01/12 13:08:51;;;;;;;17.38;3.72;;;;;;;;;;5040411;28;20396;-76
2023/01/12 13:11:18;;;;;;;9.95;4.00;;;;;;;;;;5035502;28;20029;-76
2023/01/12 13:14:00;;;;;;;17.20;5.25;;;;;;;;;;5041871;28;20039;-76
2023/01/12 13:16:29;;;;;;;9.70;3.97;;;;;;;;;;5053230;28;20025;-76
2023/01/12 13:18:55;;;;;;;14.45;4.13;;;;;;;;;;5063441;28;20049;-77
2023/01/12 13:21:32;;;;;;;13.20;5.07;;;;;;;;;;5060208;28;20468;-78
2023/01/12 13:24:10;;;;;;;20.00;4.47;;;;;;;;;;5058077;28;20025;-76
2023/01/12 13:26:43;;;;;;;12.73;3.75;;;;;;;;;;5043480;28;20070;-77
2023/01/12 13:29:27;;;;;;;12.73;3.97;;;;;;;;;;5054078;28;20478;-77
2023/01/12 13:31:53;;;;;;;19.00;4.38;;;;;;;;;;5053370;28;20035;-77
2023/01/12 13:34:40;;;;;;;12.85;4.65;;;;;;;;;;5038599;28;20503;-77
2023/01/12 13:37:06;;;;;;;13.68;4.47;;;;;;;;;;5053790;28;20055;-76
2023/01/12 13:39:35;;;;;;;18.73;5.25;;;;;;;;;;5058365;28;20391;-78
2023/01/12 13:44:46;;;;;;;20.02;4.85;;;;;;;;;;5050001;28;20040;-79
2023/01/12 13:47:26;;;;;;;14.40;4.38;;;;;;;;;;5049617;28;20032;-78
2023/01/12 13:49:57;;;;;;;10.32;4.35;;;;;;;;;;5050458;28;20049;-78
2023/01/12 13:52:29;;;;;;;21.75;4.95;;;;;;;;;;5051989;28;20038;-78
2023/01/12 13:54:55;;;;;;;19.20;4.97;;;;;;;;;;5050384;28;20024;-80
2023/01/12 13:57:24;;;;;;;24.50;5.68;;;;;;;;;;5052209;28;20037;-78
2023/01/12 13:59:56;;;;;;;17.17;5.32;;;;;;;;;;5058681;28;20028;-79
2023/01/12 14:02:23;;;;;;;20.27;6.30;;;;;;;;;;5054470;28;20033;-79
2023/01/12 14:04:56;;;;;;;16.58;5.30;;;;;;;;;;5051072;28;20030;-79
2023/01/12 14:07:22;;;;;;;16.65;7.82;;;;;;;;;;5051215;28;20025;-79
2023/01/12 14:10:18;;;;;;;18.52;9.93;;;;;;;;;;5058710;28;20223;-83
2023/01/12 14:13:09;;;;;;;17.40;8.00;;;;;;;;;;5055456;28;20049;-80
2023/01/12 14:18:23;;;;;;;20.02;7.00;;;;;;;;;;5062866;28;20556;-78
2023/01/12 14:20:50;;;;;;;65.80;36.70;;;;;;;;;;5066521;28;20079;-78
2023/01/12 14:23:19;;;;;;;62.38;29.20;;;;;;;;;;5050822;28;20028;-80
2023/01/12 14:25:45;;;;;;;29.10;9.13;;;;;;;;;;5050679;28;20028;-78
2023/01/12 14:28:16;;;;;;;15.65;7.25;;;;;;;;;;5044161;28;20040;-77
2023/01/12 14:30:47;;;;;;;11.50;4.38;;;;;;;;;;5045673;28;20033;-77
2023/01/12 14:33:16;;;;;;;6.95;3.85;;;;;;;;;;5053163;28;20025;-76
2023/01/12 14:35:45;;;;;;;5.85;3.13;;;;;;;;;;5046515;28;20036;-77
2023/01/12 14:38:13;;;;;;;12.95;6.53;;;;;;;;;;5038169;28;20032;-77
2023/01/12 14:40:39;;;;;;;13.02;5.45;;;;;;;;;;5042919;28;20135;-76
2023/01/12 14:48:42;;;;;;;18.58;5.88;;;;;;;;;;5043505;28;20032;-77
2023/01/12 14:51:21;;;;;;;18.30;5.68;;;;;;;;;;5068062;28;20060;-77
2023/01/12 14:53:48;;;;;;;16.38;5.85;;;;;;;;;;5046917;28;20049;-77
2023/01/12 14:56:28;;;;;;;9.65;5.60;;;;;;;;;;5051755;28;20132;-75
2023/01/12 14:59:04;;;;;;;16.52;4.55;;;;;;;;;;5063152;28;20033;-78
2023/01/12 15:01:30;;;;;;;17.27;6.75;;;;;;;;;;5049611;28;20021;-78
2023/01/12 15:03:57;;;;;;;12.82;5.75;;;;;;;;;;5053781;28;20030;-76
2023/01/12 15:06:23;;;;;;;15.20;4.95;;;;;;;;;;5050513;28;20145;-78
2023/01/12 15:08:57;;;;;;;13.05;6.93;;;;;;;;;;5055496;28;20037;-78
2023/01/12 15:11:34;;;;;;;17.90;5.50;;;;;;;;;;5072539;28;20033;-78
2023/01/12 15:14:00;;;;;;;17.83;6.18;;;;;;;;;;5055229;28;20125;-77
2023/01/12 15:27:27;;;;;;;18.67;5.07;;;;;;;;;;5046550;28;20068;-77
2023/01/12 15:29:54;;;;;;;13.23;4.47;;;;;;;;;;5042533;28;20140;-76
2023/01/12 15:32:22;;;;;;;16.77;4.95;;;;;;;;;;5044221;28;20466;-76
2023/01/12 15:34:48;;;;;;;18.38;5.90;;;;;;;;;;5043550;28;20028;-77
2023/01/12 15:37:15;;;;;;;15.43;5.28;;;;;;;;;;5059027;28;20025;-76
2023/01/12 15:39:41;;;;;;;16.58;5.20;;;;;;;;;;5043646;28;20045;-77
2023/01/12 15:42:15;;;;;;;11.98;5.50;;;;;;;;;;5064948;28;20021;-77